^^
B2 Weather Station Historical Data
Daily Summary for December 4, 2017 Units:  Both    English   Metric
« Previous Day
Next Day »
Daily Weekly Monthly Yearly Custom
  High: Low: Average:
Temperature: 63.6 °F /  17.6 °C 46.9 °F /  8.3 °C 56.8 °F /  13.8 °C
Dew Point: 56.1 °F /  13.4 °C 37.6 °F /  3.1 °C 46.3 °F /  7.9 °C
Humidity: 88 % 59 % 68 %
Wind Speed: 33.4 mph /  53.8 km/h - 17.5 mph /  28.2 km/h
Wind Gust: 33.4 mph /  53.8 km/h - -
Wind:- - South
Pressure: 30.02 in /  1016.5 hPa 29.56 in /  1000.9 hPa -
Precipitation: 0.03 in /  0.76 mm    
Historical Graphs
 
 
Tabular Data for December 4, 2017
Time Temperature Dew Point Pressure Wind Wind Speed Wind Gust Humidity Rainfall Rate (Hourly) solar Conditions
00:01 48.4 °F /  9.1 °C 37.6 °F /  3.1 °C 30.02 in /  1016.5 hPa SSE 12.7 mph /  20.4 km/h 12.7 mph /  20.4 km/h 66 % 0.00 in /  0 mm 0.0 W/m2 BKN
00:06 48.5 °F /  9.2 °C 38.0 °F /  3.3 °C 30.02 in /  1016.5 hPa SSE 10.4 mph /  16.7 km/h 10.4 mph /  16.7 km/h 67 % 0.00 in /  0 mm 0.0 W/m2 BKN
00:11 48.6 °F /  9.2 °C 37.7 °F /  3.2 °C 30.02 in /  1016.5 hPa SSE 11.5 mph /  18.5 km/h 11.5 mph /  18.5 km/h 66 % 0.00 in /  0 mm 0.0 W/m2 BKN
00:16 48.7 °F /  9.3 °C 37.8 °F /  3.2 °C 30.02 in /  1016.5 hPa SSE 11.5 mph /  18.5 km/h 11.5 mph /  18.5 km/h 66 % 0.00 in /  0 mm 0.0 W/m2 BKN
00:21 48.8 °F /  9.3 °C 37.9 °F /  3.3 °C 30.02 in /  1016.5 hPa SSE 11.5 mph /  18.5 km/h 11.5 mph /  18.5 km/h 66 % 0.00 in /  0 mm 0.0 W/m2 BKN
00:26 48.8 °F /  9.3 °C 37.9 °F /  3.3 °C 30.01 in /  1016.1 hPa SSE 11.0 mph /  17.7 km/h 11.0 mph /  17.7 km/h 66 % 0.00 in /  0 mm 0.0 W/m2 BKN
00:31 48.8 °F /  9.3 °C 37.9 °F /  3.3 °C 30.01 in /  1016.1 hPa SSE 12.7 mph /  20.4 km/h 12.7 mph /  20.4 km/h 66 % 0.00 in /  0 mm 0.0 W/m2 OVC
00:36 48.9 °F /  9.4 °C 38.0 °F /  3.3 °C 30.01 in /  1016.1 hPa SSE 15.0 mph /  24.1 km/h 15.0 mph /  24.1 km/h 66 % 0.00 in /  0 mm 0.0 W/m2 OVC
00:41 49.0 °F /  9.4 °C 38.1 °F /  3.4 °C 30.00 in /  1015.8 hPa SSE 11.5 mph /  18.5 km/h 11.5 mph /  18.5 km/h 66 % 0.00 in /  0 mm 0.0 W/m2 OVC
00:46 48.9 °F /  9.4 °C 38.0 °F /  3.3 °C 30.00 in /  1015.8 hPa SSE 11.0 mph /  17.7 km/h 11.0 mph /  17.7 km/h 66 % 0.00 in /  0 mm 0.0 W/m2 OVC
00:51 48.9 °F /  9.4 °C 38.0 °F /  3.3 °C 30.01 in /  1016.1 hPa SSE 9.0 mph /  14.5 km/h 9.0 mph /  14.5 km/h 66 % 0.00 in /  0 mm 0.0 W/m2 OVC
00:56 48.9 °F /  9.4 °C 38.0 °F /  3.3 °C 30.01 in /  1016.1 hPa SSE 11.5 mph /  18.5 km/h 11.5 mph /  18.5 km/h 66 % 0.00 in /  0 mm 0.0 W/m2 OVC
01:01 49.0 °F /  9.4 °C 38.1 °F /  3.4 °C 30.01 in /  1016.1 hPa SSE 9.2 mph /  14.8 km/h 9.2 mph /  14.8 km/h 66 % 0.00 in /  0 mm 0.0 W/m2 OVC
01:06 49.1 °F /  9.5 °C 38.2 °F /  3.4 °C 30.01 in /  1016.1 hPa SSE 11.5 mph /  18.5 km/h 11.5 mph /  18.5 km/h 66 % 0.00 in /  0 mm 0.0 W/m2 OVC
01:11 49.2 °F /  9.6 °C 38.3 °F /  3.5 °C 30.02 in /  1016.5 hPa SSE 9.2 mph /  14.8 km/h 9.2 mph /  14.8 km/h 66 % 0.00 in /  0 mm 0.0 W/m2 OVC
01:16 49.1 °F /  9.5 °C 38.2 °F /  3.4 °C 30.01 in /  1016.1 hPa SSE 8.1 mph /  13 km/h 8.1 mph /  13 km/h 66 % 0.00 in /  0 mm 0.0 W/m2 OVC
01:21 48.9 °F /  9.4 °C 38.4 °F /  3.6 °C 30.02 in /  1016.5 hPa South 8.1 mph /  13 km/h 8.1 mph /  13 km/h 67 % 0.00 in /  0 mm 0.0 W/m2 OVC
01:26 48.8 °F /  9.3 °C 38.3 °F /  3.5 °C 30.02 in /  1016.5 hPa SSE 6.9 mph /  11.1 km/h 6.9 mph /  11.1 km/h 67 % 0.00 in /  0 mm 0.0 W/m2 OVC
01:31 48.7 °F /  9.3 °C 38.6 °F /  3.7 °C 30.02 in /  1016.5 hPa South 5.8 mph /  9.3 km/h 5.8 mph /  9.3 km/h 68 % 0.00 in /  0 mm 0.0 W/m2 OVC
01:36 48.7 °F /  9.3 °C 38.6 °F /  3.7 °C 30.02 in /  1016.5 hPa South 6.0 mph /  9.7 km/h 6.0 mph /  9.7 km/h 68 % 0.00 in /  0 mm 0.0 W/m2 OVC
01:41 48.7 °F /  9.3 °C 38.6 °F /  3.7 °C 30.01 in /  1016.1 hPa South 4.6 mph /  7.4 km/h 4.6 mph /  7.4 km/h 68 % 0.00 in /  0 mm 0.0 W/m2 OVC
01:46 48.7 °F /  9.3 °C 39.0 °F /  3.9 °C 30.01 in /  1016.1 hPa South 6.0 mph /  9.7 km/h 6.0 mph /  9.7 km/h 69 % 0.00 in /  0 mm 0.0 W/m2 OVC
01:51 48.7 °F /  9.3 °C 39.0 °F /  3.9 °C 30.01 in /  1016.1 hPa South 4.6 mph /  7.4 km/h 4.6 mph /  7.4 km/h 69 % 0.00 in /  0 mm 0.0 W/m2 OVC
01:56 48.8 °F /  9.3 °C 39.1 °F /  3.9 °C 30.01 in /  1016.1 hPa South 4.6 mph /  7.4 km/h 4.6 mph /  7.4 km/h 69 % 0.00 in /  0 mm 0.0 W/m2 OVC
02:01 49.0 °F /  9.4 °C 39.3 °F /  4.1 °C 30.01 in /  1016.1 hPa South 6.9 mph /  11.1 km/h 6.9 mph /  11.1 km/h 69 % 0.00 in /  0 mm 0.0 W/m2 OVC
02:06 49.2 °F /  9.6 °C 39.5 °F /  4.2 °C 30.01 in /  1016.1 hPa SSE 8.1 mph /  13 km/h 8.1 mph /  13 km/h 69 % 0.00 in /  0 mm 0.0 W/m2 OVC
02:11 49.2 °F /  9.6 °C 39.5 °F /  4.2 °C 30.00 in /  1015.8 hPa SSE 10.4 mph /  16.7 km/h 10.4 mph /  16.7 km/h 69 % 0.00 in /  0 mm 0.0 W/m2 OVC
02:16 49.4 °F /  9.7 °C 39.7 °F /  4.3 °C 30.00 in /  1015.8 hPa SSE 11.5 mph /  18.5 km/h 11.5 mph /  18.5 km/h 69 % 0.00 in /  0 mm 0.0 W/m2 OVC
02:21 49.4 °F /  9.7 °C 39.7 °F /  4.3 °C 30.00 in /  1015.8 hPa SSE 11.5 mph /  18.5 km/h 11.5 mph /  18.5 km/h 69 % 0.00 in /  0 mm 0.0 W/m2 OVC
02:26 49.5 °F /  9.7 °C 39.7 °F /  4.3 °C 29.99 in /  1015.5 hPa SSE 11.5 mph /  18.5 km/h 11.5 mph /  18.5 km/h 69 % 0.00 in /  0 mm 0.0 W/m2 OVC
02:31 49.6 °F /  9.8 °C 39.8 °F /  4.3 °C 29.99 in /  1015.5 hPa SSE 9.2 mph /  14.8 km/h 9.2 mph /  14.8 km/h 69 % 0.00 in /  0 mm 0.0 W/m2 OVC
02:36 49.7 °F /  9.8 °C 39.6 °F /  4.2 °C 29.99 in /  1015.5 hPa SSE 9.2 mph /  14.8 km/h 9.2 mph /  14.8 km/h 68 % 0.00 in /  0 mm 0.0 W/m2 OVC
02:42 49.9 °F /  9.9 °C 39.8 °F /  4.3 °C 29.99 in /  1015.5 hPa SSE 11.5 mph /  18.5 km/h 11.5 mph /  18.5 km/h 68 % 0.00 in /  0 mm 0.0 W/m2 OVC
02:47 50.1 °F /  10.1 °C 39.9 °F /  4.4 °C 29.99 in /  1015.5 hPa South 10.4 mph /  16.7 km/h 10.4 mph /  16.7 km/h 68 % 0.00 in /  0 mm 0.0 W/m2 OVC
02:52 50.1 °F /  10.1 °C 39.9 °F /  4.4 °C 29.99 in /  1015.5 hPa South 12.0 mph /  19.3 km/h 12.0 mph /  19.3 km/h 68 % 0.00 in /  0 mm 0.0 W/m2 OVC
02:57 50.1 °F /  10.1 °C 40.3 °F /  4.6 °C 29.98 in /  1015.1 hPa South 8.1 mph /  13 km/h 8.1 mph /  13 km/h 69 % 0.00 in /  0 mm 0.0 W/m2 OVC
03:02 49.9 °F /  9.9 °C 40.1 °F /  4.5 °C 29.98 in /  1015.1 hPa South 9.2 mph /  14.8 km/h 9.2 mph /  14.8 km/h 69 % 0.00 in /  0 mm 0.0 W/m2 OVC
03:07 49.8 °F /  9.9 °C 40.0 °F /  4.4 °C 29.98 in /  1015.1 hPa SSE 8.0 mph /  12.9 km/h 8.0 mph /  12.9 km/h 69 % 0.00 in /  0 mm 0.0 W/m2 OVC
03:12 49.6 °F /  9.8 °C 40.2 °F /  4.6 °C 29.98 in /  1015.1 hPa SSE 10.4 mph /  16.7 km/h 10.4 mph /  16.7 km/h 70 % 0.00 in /  0 mm 0.0 W/m2 OVC
03:17 49.6 °F /  9.8 °C 40.2 °F /  4.6 °C 29.98 in /  1015.1 hPa SSE 9.0 mph /  14.5 km/h 9.0 mph /  14.5 km/h 70 % 0.00 in /  0 mm 0.0 W/m2 OVC
03:22 49.6 °F /  9.8 °C 40.2 °F /  4.6 °C 29.97 in /  1014.8 hPa SSE 9.2 mph /  14.8 km/h 9.2 mph /  14.8 km/h 70 % 0.00 in /  0 mm 0.0 W/m2 OVC
03:27 49.7 °F /  9.8 °C 40.3 °F /  4.6 °C 29.97 in /  1014.8 hPa SSE 12.7 mph /  20.4 km/h 12.7 mph /  20.4 km/h 70 % 0.00 in /  0 mm 0.0 W/m2 OVC
03:32 49.8 °F /  9.9 °C 40.8 °F /  4.9 °C 29.96 in /  1014.4 hPa SSE 10.4 mph /  16.7 km/h 10.4 mph /  16.7 km/h 71 % 0.00 in /  0 mm 0.0 W/m2 BKN
03:37 49.9 °F /  9.9 °C 40.9 °F /  4.9 °C 29.96 in /  1014.4 hPa SSE 11.5 mph /  18.5 km/h 11.5 mph /  18.5 km/h 71 % 0.00 in /  0 mm 0.0 W/m2 BKN
03:42 50.0 °F /  10 °C 41.0 °F /  5 °C 29.96 in /  1014.4 hPa SSE 11.5 mph /  18.5 km/h 11.5 mph /  18.5 km/h 71 % 0.00 in /  0 mm 0.0 W/m2 BKN
03:47 50.4 °F /  10.2 °C 41.0 °F /  5 °C 29.95 in /  1014.1 hPa SSE 11.5 mph /  18.5 km/h 11.5 mph /  18.5 km/h 70 % 0.00 in /  0 mm 0.0 W/m2 OVC
03:52 50.9 °F /  10.5 °C 41.1 °F /  5.1 °C 29.96 in /  1014.4 hPa South 11.5 mph /  18.5 km/h 11.5 mph /  18.5 km/h 69 % 0.00 in /  0 mm 0.0 W/m2 OVC
03:57 51.4 °F /  10.8 °C 41.2 °F /  5.1 °C 29.96 in /  1014.4 hPa South 11.5 mph /  18.5 km/h 11.5 mph /  18.5 km/h 68 % 0.00 in /  0 mm 0.0 W/m2 OVC
04:02 51.8 °F /  11 °C 41.6 °F /  5.3 °C 29.95 in /  1014.1 hPa South 16.1 mph /  25.9 km/h 16.1 mph /  25.9 km/h 68 % 0.00 in /  0 mm 0.0 W/m2 OVC
04:07 52.0 °F /  11.1 °C 41.4 °F /  5.2 °C 29.96 in /  1014.4 hPa South 11.5 mph /  18.5 km/h 11.5 mph /  18.5 km/h 67 % 0.00 in /  0 mm 0.0 W/m2 OVC
04:12 52.1 °F /  11.2 °C 41.5 °F /  5.3 °C 29.95 in /  1014.1 hPa SSE 11.5 mph /  18.5 km/h 11.5 mph /  18.5 km/h 67 % 0.00 in /  0 mm 0.0 W/m2 OVC
04:17 52.2 °F /  11.2 °C 41.6 °F /  5.3 °C 29.95 in /  1014.1 hPa South 11.5 mph /  18.5 km/h 11.5 mph /  18.5 km/h 67 % 0.00 in /  0 mm 0.0 W/m2 OVC
04:22 52.3 °F /  11.3 °C 41.7 °F /  5.4 °C 29.95 in /  1014.1 hPa South 11.5 mph /  18.5 km/h 11.5 mph /  18.5 km/h 67 % 0.00 in /  0 mm 0.0 W/m2 OVC
04:27 52.3 °F /  11.3 °C 41.7 °F /  5.4 °C 29.95 in /  1014.1 hPa SSE 10.4 mph /  16.7 km/h 10.4 mph /  16.7 km/h 67 % 0.00 in /  0 mm 0.0 W/m2 OVC
04:37 52.3 °F /  11.3 °C 41.7 °F /  5.4 °C 29.95 in /  1014.1 hPa SSE 5.8 mph /  9.3 km/h 5.8 mph /  9.3 km/h 67 % 0.00 in /  0 mm 0.0 W/m2 OVC
04:42 52.2 °F /  11.2 °C 42.0 °F /  5.6 °C 29.95 in /  1014.1 hPa South 5.8 mph /  9.3 km/h 5.8 mph /  9.3 km/h 68 % 0.00 in /  0 mm 0.0 W/m2 OVC
04:47 52.1 °F /  11.2 °C 41.9 °F /  5.5 °C 29.95 in /  1014.1 hPa SSE 6.0 mph /  9.7 km/h 6.0 mph /  9.7 km/h 68 % 0.00 in /  0 mm 0.0 W/m2 OVC
04:52 52.2 °F /  11.2 °C 42.0 °F /  5.6 °C 29.94 in /  1013.8 hPa SSE 6.9 mph /  11.1 km/h 6.9 mph /  11.1 km/h 68 % 0.00 in /  0 mm 0.0 W/m2 OVC
04:57 52.5 °F /  11.4 °C 42.2 °F /  5.7 °C 29.94 in /  1013.8 hPa SSE 8.1 mph /  13 km/h 8.1 mph /  13 km/h 68 % 0.00 in /  0 mm 0.0 W/m2 OVC
05:02 52.6 °F /  11.4 °C 41.9 °F /  5.5 °C 29.94 in /  1013.8 hPa SSE 11.5 mph /  18.5 km/h 11.5 mph /  18.5 km/h 67 % 0.00 in /  0 mm 0.0 W/m2 OVC
05:07 52.9 °F /  11.6 °C 41.8 °F /  5.4 °C 29.94 in /  1013.8 hPa SSE 10.4 mph /  16.7 km/h 10.4 mph /  16.7 km/h 66 % 0.00 in /  0 mm 0.0 W/m2 OVC
05:12 53.2 °F /  11.8 °C 42.1 °F /  5.6 °C 29.93 in /  1013.4 hPa South 11.5 mph /  18.5 km/h 11.5 mph /  18.5 km/h 66 % 0.00 in /  0 mm 0.0 W/m2 OVC
05:17 53.2 °F /  11.8 °C 42.1 °F /  5.6 °C 29.93 in /  1013.4 hPa SSE 18.0 mph /  29 km/h 18.0 mph /  29 km/h 66 % 0.00 in /  0 mm 0.0 W/m2 OVC
05:22 53.4 °F /  11.9 °C 41.9 °F /  5.5 °C 29.93 in /  1013.4 hPa South 16.1 mph /  25.9 km/h 16.1 mph /  25.9 km/h 65 % 0.00 in /  0 mm 0.0 W/m2 OVC
05:27 53.4 °F /  11.9 °C 42.3 °F /  5.7 °C 29.93 in /  1013.4 hPa SSE 12.0 mph /  19.3 km/h 12.0 mph /  19.3 km/h 66 % 0.00 in /  0 mm 0.0 W/m2 OVC
05:32 53.3 °F /  11.8 °C 41.8 °F /  5.4 °C 29.93 in /  1013.4 hPa South 11.5 mph /  18.5 km/h 11.5 mph /  18.5 km/h 65 % 0.00 in /  0 mm 0.0 W/m2 OVC
05:37 53.3 °F /  11.8 °C 41.8 °F /  5.4 °C 29.92 in /  1013.1 hPa South 11.5 mph /  18.5 km/h 11.5 mph /  18.5 km/h 65 % 0.00 in /  0 mm 0.0 W/m2 OVC
05:42 53.2 °F /  11.8 °C 42.1 °F /  5.6 °C 29.92 in /  1013.1 hPa SSE 15.0 mph /  24.1 km/h 15.0 mph /  24.1 km/h 66 % 0.00 in /  0 mm 0.0 W/m2 OVC
05:47 53.2 °F /  11.8 °C 42.1 °F /  5.6 °C 29.92 in /  1013.1 hPa SSE 12.7 mph /  20.4 km/h 12.7 mph /  20.4 km/h 66 % 0.00 in /  0 mm 0.0 W/m2 OVC
05:52 53.3 °F /  11.8 °C 41.8 °F /  5.4 °C 29.92 in /  1013.1 hPa SSE 13.8 mph /  22.2 km/h 13.8 mph /  22.2 km/h 65 % 0.00 in /  0 mm 0.0 W/m2 OVC
05:57 53.3 °F /  11.8 °C 42.2 °F /  5.7 °C 29.91 in /  1012.8 hPa SSE 12.7 mph /  20.4 km/h 12.7 mph /  20.4 km/h 66 % 0.00 in /  0 mm 0.0 W/m2 OVC
06:02 53.1 °F /  11.7 °C 42.0 °F /  5.6 °C 29.92 in /  1013.1 hPa SSE 12.0 mph /  19.3 km/h 12.0 mph /  19.3 km/h 66 % 0.00 in /  0 mm 0.0 W/m2 BKN
06:07 52.8 °F /  11.6 °C 41.7 °F /  5.4 °C 29.91 in /  1012.8 hPa South 18.4 mph /  29.6 km/h 18.4 mph /  29.6 km/h 66 % 0.00 in /  0 mm 0.0 W/m2 BKN
06:12 52.6 °F /  11.4 °C 41.9 °F /  5.5 °C 29.90 in /  1012.4 hPa SSE 13.8 mph /  22.2 km/h 13.8 mph /  22.2 km/h 67 % 0.00 in /  0 mm 0.0 W/m2 BKN
06:17 52.3 °F /  11.3 °C 41.7 °F /  5.4 °C 29.90 in /  1012.4 hPa SSE 12.7 mph /  20.4 km/h 12.7 mph /  20.4 km/h 67 % 0.00 in /  0 mm 0.0 W/m2 BKN
06:22 52.0 °F /  11.1 °C 41.8 °F /  5.4 °C 29.90 in /  1012.4 hPa South 11.5 mph /  18.5 km/h 11.5 mph /  18.5 km/h 68 % 0.00 in /  0 mm 0.0 W/m2 BKN
06:27 52.0 °F /  11.1 °C 41.8 °F /  5.4 °C 29.90 in /  1012.4 hPa SE 10.0 mph /  16.1 km/h 10.0 mph /  16.1 km/h 68 % 0.00 in /  0 mm 0.0 W/m2 BKN
06:32 52.3 °F /  11.3 °C 42.0 °F /  5.6 °C 29.90 in /  1012.4 hPa South 15.0 mph /  24.1 km/h 15.0 mph /  24.1 km/h 68 % 0.00 in /  0 mm 0.0 W/m2 BKN
06:37 52.4 °F /  11.3 °C 42.1 °F /  5.6 °C 29.90 in /  1012.4 hPa South 11.5 mph /  18.5 km/h 11.5 mph /  18.5 km/h 68 % 0.00 in /  0 mm 0.0 W/m2 BKN
06:42 52.5 °F /  11.4 °C 42.2 °F /  5.7 °C 29.89 in /  1012.1 hPa SSE 12.7 mph /  20.4 km/h 12.7 mph /  20.4 km/h 68 % 0.00 in /  0 mm 0.0 W/m2 BKN
06:47 52.5 °F /  11.4 °C 42.2 °F /  5.7 °C 29.89 in /  1012.1 hPa South 16.1 mph /  25.9 km/h 16.1 mph /  25.9 km/h 68 % 0.00 in /  0 mm 0.0 W/m2 BKN
06:52 52.3 °F /  11.3 °C 42.0 °F /  5.6 °C 29.89 in /  1012.1 hPa SSE 12.7 mph /  20.4 km/h 12.7 mph /  20.4 km/h 68 % 0.00 in /  0 mm 0.0 W/m2 BKN
06:57 51.8 °F /  11 °C 41.9 °F /  5.5 °C 29.89 in /  1012.1 hPa SSE 11.5 mph /  18.5 km/h 11.5 mph /  18.5 km/h 69 % 0.00 in /  0 mm 0.0 W/m2 BKN
07:02 51.5 °F /  10.8 °C 41.7 °F /  5.4 °C 29.88 in /  1011.7 hPa SSE 11.5 mph /  18.5 km/h 11.5 mph /  18.5 km/h 69 % 0.00 in /  0 mm 0.0 W/m2 SCT
07:07 51.4 °F /  10.8 °C 41.9 °F /  5.5 °C 29.88 in /  1011.7 hPa SSE 12.7 mph /  20.4 km/h 12.7 mph /  20.4 km/h 70 % 0.00 in /  0 mm 0.0 W/m2 SCT
07:12 51.3 °F /  10.7 °C 41.8 °F /  5.4 °C 29.88 in /  1011.7 hPa South 11.5 mph /  18.5 km/h 11.5 mph /  18.5 km/h 70 % 0.00 in /  0 mm 5.0 W/m2 SCT
07:17 51.2 °F /  10.7 °C 41.7 °F /  5.4 °C 29.88 in /  1011.7 hPa SSE 10.4 mph /  16.7 km/h 10.4 mph /  16.7 km/h 70 % 0.00 in /  0 mm 7.0 W/m2 SCT
07:22 51.2 °F /  10.7 °C 41.7 °F /  5.4 °C 29.88 in /  1011.7 hPa SSE 8.1 mph /  13 km/h 8.1 mph /  13 km/h 70 % 0.00 in /  0 mm 11.0 W/m2 SCT
07:27 51.3 °F /  10.7 °C 42.2 °F /  5.7 °C 29.88 in /  1011.7 hPa SSE 9.2 mph /  14.8 km/h 9.2 mph /  14.8 km/h 71 % 0.00 in /  0 mm 12.0 W/m2 SCT
07:32 51.3 °F /  10.7 °C 42.2 °F /  5.7 °C 29.88 in /  1011.7 hPa SSE 11.5 mph /  18.5 km/h 11.5 mph /  18.5 km/h 71 % 0.00 in /  0 mm 18.0 W/m2 CLR
07:38 51.5 °F /  10.8 °C 42.0 °F /  5.6 °C 29.88 in /  1011.7 hPa SSE 9.2 mph /  14.8 km/h 9.2 mph /  14.8 km/h 70 % 0.00 in /  0 mm 30.0 W/m2 CLR
07:43 51.9 °F /  11.1 °C 42.4 °F /  5.8 °C 29.87 in /  1011.4 hPa SSE 11.5 mph /  18.5 km/h 11.5 mph /  18.5 km/h 70 % 0.00 in /  0 mm 40.0 W/m2 CLR
07:48 52.1 °F /  11.2 °C 42.6 °F /  5.9 °C 29.87 in /  1011.4 hPa SSE 12.7 mph /  20.4 km/h 12.7 mph /  20.4 km/h 70 % 0.00 in /  0 mm 46.0 W/m2 SCT
07:53 52.3 °F /  11.3 °C 42.8 °F /  6 °C 29.87 in /  1011.4 hPa SSE 13.8 mph /  22.2 km/h 13.8 mph /  22.2 km/h 70 % 0.00 in /  0 mm 54.0 W/m2 SCT
07:58 52.4 °F /  11.3 °C 42.9 °F /  6.1 °C 29.87 in /  1011.4 hPa South 13.8 mph /  22.2 km/h 13.8 mph /  22.2 km/h 70 % 0.00 in /  0 mm 51.0 W/m2 SCT
08:03 52.6 °F /  11.4 °C 42.7 °F /  5.9 °C 29.87 in /  1011.4 hPa SSE 12.7 mph /  20.4 km/h 12.7 mph /  20.4 km/h 69 % 0.00 in /  0 mm 46.0 W/m2 SCT
08:08 52.8 °F /  11.6 °C 42.9 °F /  6.1 °C 29.87 in /  1011.4 hPa South 12.7 mph /  20.4 km/h 12.7 mph /  20.4 km/h 69 % 0.00 in /  0 mm 30.0 W/m2 SCT
08:13 53.0 °F /  11.7 °C 43.1 °F /  6.2 °C 29.87 in /  1011.4 hPa South 13.8 mph /  22.2 km/h 13.8 mph /  22.2 km/h 69 % 0.00 in /  0 mm 26.0 W/m2 SCT
08:18 53.1 °F /  11.7 °C 43.2 °F /  6.2 °C 29.86 in /  1011.1 hPa South 15.0 mph /  24.1 km/h 15.0 mph /  24.1 km/h 69 % 0.00 in /  0 mm 39.0 W/m2 SCT
08:23 53.3 °F /  11.8 °C 43.4 °F /  6.3 °C 29.86 in /  1011.1 hPa SSE 11.5 mph /  18.5 km/h 11.5 mph /  18.5 km/h 69 % 0.00 in /  0 mm 49.0 W/m2 SCT
08:28 53.7 °F /  12.1 °C 43.4 °F /  6.3 °C 29.86 in /  1011.1 hPa South 19.6 mph /  31.5 km/h 19.6 mph /  31.5 km/h 68 % 0.00 in /  0 mm 49.0 W/m2 SCT
08:33 54.0 °F /  12.2 °C 43.7 °F /  6.5 °C 29.85 in /  1010.7 hPa SSE 16.1 mph /  25.9 km/h 16.1 mph /  25.9 km/h 68 % 0.00 in /  0 mm 51.0 W/m2 OVC
08:38 54.3 °F /  12.4 °C 44.0 °F /  6.7 °C 29.85 in /  1010.7 hPa South 19.6 mph /  31.5 km/h 19.6 mph /  31.5 km/h 68 % 0.00 in /  0 mm 51.0 W/m2 OVC
08:43 54.6 °F /  12.6 °C 44.2 °F /  6.8 °C 29.84 in /  1010.4 hPa South 13.8 mph /  22.2 km/h 13.8 mph /  22.2 km/h 68 % 0.00 in /  0 mm 62.0 W/m2 OVC
08:48 54.9 °F /  12.7 °C 44.1 °F /  6.7 °C 29.84 in /  1010.4 hPa South 18.4 mph /  29.6 km/h 18.4 mph /  29.6 km/h 67 % 0.00 in /  0 mm 63.0 W/m2 OVC
08:53 55.2 °F /  12.9 °C 44.4 °F /  6.9 °C 29.84 in /  1010.4 hPa SSE 18.4 mph /  29.6 km/h 18.4 mph /  29.6 km/h 67 % 0.00 in /  0 mm 76.0 W/m2 OVC
08:58 55.5 °F /  13.1 °C 44.7 °F /  7.1 °C 29.84 in /  1010.4 hPa South 17.3 mph /  27.8 km/h 17.3 mph /  27.8 km/h 67 % 0.00 in /  0 mm 62.0 W/m2 OVC
09:03 55.8 °F /  13.2 °C 44.6 °F /  7 °C 29.84 in /  1010.4 hPa SSE 20.7 mph /  33.3 km/h 20.7 mph /  33.3 km/h 66 % 0.00 in /  0 mm 74.0 W/m2 OVC
09:08 56.0 °F /  13.3 °C 44.8 °F /  7.1 °C 29.84 in /  1010.4 hPa South 19.6 mph /  31.5 km/h 19.6 mph /  31.5 km/h 66 % 0.00 in /  0 mm 54.0 W/m2 OVC
09:13 56.3 °F /  13.5 °C 44.7 °F /  7.1 °C 29.83 in /  1010 hPa SSE 24.2 mph /  38.9 km/h 24.2 mph /  38.9 km/h 65 % 0.00 in /  0 mm 70.0 W/m2 OVC
09:18 56.5 °F /  13.6 °C 44.9 °F /  7.2 °C 29.83 in /  1010 hPa South 16.0 mph /  25.7 km/h 16.0 mph /  25.7 km/h 65 % 0.00 in /  0 mm 107.0 W/m2 OVC
09:23 56.9 °F /  13.8 °C 44.8 °F /  7.1 °C 29.83 in /  1010 hPa SSE 21.9 mph /  35.2 km/h 21.9 mph /  35.2 km/h 64 % 0.00 in /  0 mm 121.0 W/m2 OVC
09:28 57.1 °F /  13.9 °C 45.0 °F /  7.2 °C 29.83 in /  1010 hPa SSE 22.0 mph /  35.4 km/h 22.0 mph /  35.4 km/h 64 % 0.00 in /  0 mm 116.0 W/m2 OVC
09:33 57.4 °F /  14.1 °C 45.3 °F /  7.4 °C 29.83 in /  1010 hPa South 19.6 mph /  31.5 km/h 19.6 mph /  31.5 km/h 64 % 0.00 in /  0 mm 125.0 W/m2 OVC
09:38 57.7 °F /  14.3 °C 45.6 °F /  7.6 °C 29.82 in /  1009.7 hPa SSE 20.7 mph /  33.3 km/h 20.7 mph /  33.3 km/h 64 % 0.00 in /  0 mm 102.0 W/m2 OVC
09:43 57.8 °F /  14.3 °C 45.7 °F /  7.6 °C 29.82 in /  1009.7 hPa South 22.0 mph /  35.4 km/h 22.0 mph /  35.4 km/h 64 % 0.00 in /  0 mm 111.0 W/m2 OVC
09:48 57.8 °F /  14.3 °C 45.7 °F /  7.6 °C 29.82 in /  1009.7 hPa SSE 15.0 mph /  24.1 km/h 15.0 mph /  24.1 km/h 64 % 0.00 in /  0 mm 116.0 W/m2 OVC
09:58 58.2 °F /  14.6 °C 46.1 °F /  7.8 °C 29.82 in /  1009.7 hPa South 25.3 mph /  40.7 km/h 25.3 mph /  40.7 km/h 64 % 0.00 in /  0 mm 125.0 W/m2 OVC
10:03 58.3 °F /  14.6 °C 46.2 °F /  7.9 °C 29.81 in /  1009.4 hPa SSE 20.7 mph /  33.3 km/h 20.7 mph /  33.3 km/h 64 % 0.00 in /  0 mm 102.0 W/m2 OVC
10:08 58.4 °F /  14.7 °C 46.3 °F /  7.9 °C 29.81 in /  1009.4 hPa South 20.7 mph /  33.3 km/h 20.7 mph /  33.3 km/h 64 % 0.00 in /  0 mm 139.0 W/m2 OVC
10:13 58.4 °F /  14.7 °C 46.3 °F /  7.9 °C 29.81 in /  1009.4 hPa SSE 17.3 mph /  27.8 km/h 17.3 mph /  27.8 km/h 64 % 0.00 in /  0 mm 127.0 W/m2 OVC
10:18 58.5 °F /  14.7 °C 46.4 °F /  8 °C 29.80 in /  1009 hPa SSW 25.0 mph /  40.2 km/h 25.0 mph /  40.2 km/h 64 % 0.00 in /  0 mm 142.0 W/m2 OVC
10:23 58.6 °F /  14.8 °C 46.5 °F /  8.1 °C 29.80 in /  1009 hPa South 21.9 mph /  35.2 km/h 21.9 mph /  35.2 km/h 64 % 0.00 in /  0 mm 172.0 W/m2 OVC
10:28 58.8 °F /  14.9 °C 46.6 °F /  8.1 °C 29.79 in /  1008.7 hPa SSE 16.1 mph /  25.9 km/h 16.1 mph /  25.9 km/h 64 % 0.00 in /  0 mm 216.0 W/m2 OVC
10:33 58.9 °F /  14.9 °C 46.7 °F /  8.2 °C 29.79 in /  1008.7 hPa South 20.7 mph /  33.3 km/h 20.7 mph /  33.3 km/h 64 % 0.00 in /  0 mm 174.0 W/m2 OVC
10:38 58.9 °F /  14.9 °C 46.7 °F /  8.2 °C 29.78 in /  1008.4 hPa South 19.6 mph /  31.5 km/h 19.6 mph /  31.5 km/h 64 % 0.00 in /  0 mm 120.0 W/m2 OVC
10:43 58.8 °F /  14.9 °C 46.6 °F /  8.1 °C 29.78 in /  1008.4 hPa South 20.7 mph /  33.3 km/h 20.7 mph /  33.3 km/h 64 % 0.00 in /  0 mm 163.0 W/m2 OVC
10:53 59.0 °F /  15 °C 46.8 °F /  8.2 °C 29.78 in /  1008.4 hPa South 18.4 mph /  29.6 km/h 18.4 mph /  29.6 km/h 64 % 0.00 in /  0 mm 137.0 W/m2 OVC
10:58 59.1 °F /  15.1 °C 46.9 °F /  8.3 °C 29.77 in /  1008 hPa South 20.7 mph /  33.3 km/h 20.7 mph /  33.3 km/h 64 % 0.00 in /  0 mm 113.0 W/m2 OVC
11:03 59.2 °F /  15.1 °C 47.0 °F /  8.3 °C 29.77 in /  1008 hPa SW 19.6 mph /  31.5 km/h 19.6 mph /  31.5 km/h 64 % 0.00 in /  0 mm 156.0 W/m2 OVC
11:08 59.5 °F /  15.3 °C 47.3 °F /  8.5 °C 29.76 in /  1007.7 hPa South 24.2 mph /  38.9 km/h 24.2 mph /  38.9 km/h 64 % 0.00 in /  0 mm 188.0 W/m2 OVC
11:13 60.0 °F /  15.6 °C 47.8 °F /  8.8 °C 29.76 in /  1007.7 hPa South 16.1 mph /  25.9 km/h 16.1 mph /  25.9 km/h 64 % 0.00 in /  0 mm 272.0 W/m2 OVC
11:18 60.5 °F /  15.8 °C 47.8 °F /  8.8 °C 29.75 in /  1007.3 hPa SSE 24.2 mph /  38.9 km/h 24.2 mph /  38.9 km/h 63 % 0.00 in /  0 mm 271.0 W/m2 OVC
11:23 60.9 °F /  16.1 °C 47.8 °F /  8.8 °C 29.75 in /  1007.3 hPa South 23.0 mph /  37 km/h 23.0 mph /  37 km/h 62 % 0.00 in /  0 mm 230.0 W/m2 OVC
11:28 61.1 °F /  16.2 °C 48.0 °F /  8.9 °C 29.75 in /  1007.3 hPa South 18.4 mph /  29.6 km/h 18.4 mph /  29.6 km/h 62 % 0.00 in /  0 mm 225.0 W/m2 OVC
11:33 61.3 °F /  16.3 °C 48.2 °F /  9 °C 29.74 in /  1007 hPa SW 15.0 mph /  24.1 km/h 15.0 mph /  24.1 km/h 62 % 0.00 in /  0 mm 216.0 W/m2 BKN
11:38 61.5 °F /  16.4 °C 48.4 °F /  9.1 °C 29.74 in /  1007 hPa South 19.6 mph /  31.5 km/h 19.6 mph /  31.5 km/h 62 % 0.00 in /  0 mm 255.0 W/m2 BKN
11:43 61.8 °F /  16.6 °C 48.6 °F /  9.2 °C 29.74 in /  1007 hPa SSW 17.3 mph /  27.8 km/h 17.3 mph /  27.8 km/h 62 % 0.00 in /  0 mm 234.0 W/m2 BKN
11:48 62.1 °F /  16.7 °C 48.5 °F /  9.2 °C 29.74 in /  1007 hPa South 18.4 mph /  29.6 km/h 18.4 mph /  29.6 km/h 61 % 0.00 in /  0 mm 186.0 W/m2 SCT
11:53 62.1 °F /  16.7 °C 48.5 °F /  9.2 °C 29.73 in /  1006.7 hPa South 19.6 mph /  31.5 km/h 19.6 mph /  31.5 km/h 61 % 0.00 in /  0 mm 162.0 W/m2 SCT
11:58 62.1 °F /  16.7 °C 48.9 °F /  9.4 °C 29.73 in /  1006.7 hPa South 19.6 mph /  31.5 km/h 19.6 mph /  31.5 km/h 62 % 0.00 in /  0 mm 181.0 W/m2 SCT
12:03 62.2 °F /  16.8 °C 49.0 °F /  9.4 °C 29.72 in /  1006.3 hPa South 20.7 mph /  33.3 km/h 20.7 mph /  33.3 km/h 62 % 0.00 in /  0 mm 185.0 W/m2 CLR
12:08 62.4 °F /  16.9 °C 49.2 °F /  9.6 °C 29.72 in /  1006.3 hPa South 19.6 mph /  31.5 km/h 19.6 mph /  31.5 km/h 62 % 0.00 in /  0 mm 197.0 W/m2 CLR
12:13 62.5 °F /  16.9 °C 49.3 °F /  9.6 °C 29.72 in /  1006.3 hPa SW 18.4 mph /  29.6 km/h 18.4 mph /  29.6 km/h 62 % 0.00 in /  0 mm 225.0 W/m2 CLR
12:18 62.8 °F /  17.1 °C 49.6 °F /  9.8 °C 29.72 in /  1006.3 hPa South 23.0 mph /  37 km/h 23.0 mph /  37 km/h 62 % 0.00 in /  0 mm 306.0 W/m2 CLR
12:23 63.0 °F /  17.2 °C 49.8 °F /  9.9 °C 29.72 in /  1006.3 hPa South 19.6 mph /  31.5 km/h 19.6 mph /  31.5 km/h 62 % 0.00 in /  0 mm 220.0 W/m2 CLR
12:28 63.0 °F /  17.2 °C 49.8 °F /  9.9 °C 29.71 in /  1006 hPa South 18.4 mph /  29.6 km/h 18.4 mph /  29.6 km/h 62 % 0.00 in /  0 mm 207.0 W/m2 CLR
12:33 62.9 °F /  17.2 °C 49.7 °F /  9.8 °C 29.71 in /  1006 hPa South 19.6 mph /  31.5 km/h 19.6 mph /  31.5 km/h 62 % 0.00 in /  0 mm 211.0 W/m2 CLR
12:38 62.9 °F /  17.2 °C 49.7 °F /  9.8 °C 29.70 in /  1005.6 hPa SW 20.7 mph /  33.3 km/h 20.7 mph /  33.3 km/h 62 % 0.00 in /  0 mm 206.0 W/m2 CLR
12:43 63.1 °F /  17.3 °C 49.9 °F /  9.9 °C 29.70 in /  1005.6 hPa SSW 19.6 mph /  31.5 km/h 19.6 mph /  31.5 km/h 62 % 0.00 in /  0 mm 202.0 W/m2 CLR
12:48 63.2 °F /  17.3 °C 50.0 °F /  10 °C 29.70 in /  1005.6 hPa SSE 24.2 mph /  38.9 km/h 24.2 mph /  38.9 km/h 62 % 0.00 in /  0 mm 179.0 W/m2 CLR
12:53 63.1 °F /  17.3 °C 49.9 °F /  9.9 °C 29.70 in /  1005.6 hPa South 19.6 mph /  31.5 km/h 19.6 mph /  31.5 km/h 62 % 0.00 in /  0 mm 169.0 W/m2 CLR
12:58 63.2 °F /  17.3 °C 50.0 °F /  10 °C 29.70 in /  1005.6 hPa South 25.3 mph /  40.7 km/h 25.3 mph /  40.7 km/h 62 % 0.00 in /  0 mm 192.0 W/m2 CLR
13:03 63.4 °F /  17.4 °C 49.7 °F /  9.8 °C 29.69 in /  1005.3 hPa SW 24.2 mph /  38.9 km/h 24.2 mph /  38.9 km/h 61 % 0.00 in /  0 mm 197.0 W/m2 CLR
13:08 63.5 °F /  17.5 °C 50.2 °F /  10.1 °C 29.69 in /  1005.3 hPa South 17.3 mph /  27.8 km/h 17.3 mph /  27.8 km/h 62 % 0.00 in /  0 mm 186.0 W/m2 CLR
13:13 63.6 °F /  17.6 °C 49.9 °F /  9.9 °C 29.69 in /  1005.3 hPa South 19.6 mph /  31.5 km/h 19.6 mph /  31.5 km/h 61 % 0.00 in /  0 mm 158.0 W/m2 CLR
13:18 63.6 °F /  17.6 °C 49.9 °F /  9.9 °C 29.68 in /  1005 hPa South 19.6 mph /  31.5 km/h 19.6 mph /  31.5 km/h 61 % 0.00 in /  0 mm 160.0 W/m2 CLR
13:23 63.5 °F /  17.5 °C 49.8 °F /  9.9 °C 29.68 in /  1005 hPa SSW 17.3 mph /  27.8 km/h 17.3 mph /  27.8 km/h 61 % 0.00 in /  0 mm 155.0 W/m2 CLR
13:28 63.5 °F /  17.5 °C 49.8 °F /  9.9 °C 29.67 in /  1004.6 hPa South 25.3 mph /  40.7 km/h 25.3 mph /  40.7 km/h 61 % 0.00 in /  0 mm 148.0 W/m2 CLR
13:33 63.4 °F /  17.4 °C 49.7 °F /  9.8 °C 29.67 in /  1004.6 hPa South 28.8 mph /  46.3 km/h 28.8 mph /  46.3 km/h 61 % 0.00 in /  0 mm 137.0 W/m2 SCT
13:38 63.4 °F /  17.4 °C 50.1 °F /  10.1 °C 29.67 in /  1004.6 hPa SSW 17.3 mph /  27.8 km/h 17.3 mph /  27.8 km/h 62 % 0.00 in /  0 mm 121.0 W/m2 SCT
13:43 63.3 °F /  17.4 °C 49.6 °F /  9.8 °C 29.68 in /  1005 hPa SSW 19.6 mph /  31.5 km/h 19.6 mph /  31.5 km/h 61 % 0.00 in /  0 mm 114.0 W/m2 SCT
13:48 63.2 °F /  17.3 °C 49.5 °F /  9.7 °C 29.67 in /  1004.6 hPa South 18.4 mph /  29.6 km/h 18.4 mph /  29.6 km/h 61 % 0.00 in /  0 mm 128.0 W/m2 SCT
13:50 63.2 °F /  17.3 °C 49.5 °F /  9.7 °C 29.67 in /  1004.6 hPa SSE 19.6 mph /  31.5 km/h 19.6 mph /  31.5 km/h 61 % 0.00 in /  0 mm 135.0 W/m2 SCT
13:55 63.2 °F /  17.3 °C 49.5 °F /  9.7 °C 29.67 in /  1004.6 hPa South 19.6 mph /  31.5 km/h 19.6 mph /  31.5 km/h 61 % 0.00 in /  0 mm 141.0 W/m2 SCT
14:00 63.2 °F /  17.3 °C 49.5 °F /  9.7 °C 29.68 in /  1005 hPa South 17.3 mph /  27.8 km/h 17.3 mph /  27.8 km/h 61 % 0.00 in /  0 mm 132.0 W/m2 SCT
14:05 63.1 °F /  17.3 °C 49.4 °F /  9.7 °C 29.68 in /  1005 hPa South 19.6 mph /  31.5 km/h 19.6 mph /  31.5 km/h 61 % 0.00 in /  0 mm 125.0 W/m2 SCT
14:10 63.1 °F /  17.3 °C 49.4 °F /  9.7 °C 29.68 in /  1005 hPa South 21.9 mph /  35.2 km/h 21.9 mph /  35.2 km/h 61 % 0.00 in /  0 mm 109.0 W/m2 SCT
14:15 63.0 °F /  17.2 °C 49.3 °F /  9.6 °C 29.68 in /  1005 hPa South 18.4 mph /  29.6 km/h 18.4 mph /  29.6 km/h 61 % 0.00 in /  0 mm 91.0 W/m2 SCT
14:20 63.1 °F /  17.3 °C 49.4 °F /  9.7 °C 29.67 in /  1004.6 hPa SSW 19.6 mph /  31.5 km/h 19.6 mph /  31.5 km/h 61 % 0.00 in /  0 mm 93.0 W/m2 SCT
14:25 63.2 °F /  17.3 °C 49.5 °F /  9.7 °C 29.68 in /  1005 hPa South 21.9 mph /  35.2 km/h 21.9 mph /  35.2 km/h 61 % 0.00 in /  0 mm 81.0 W/m2 SCT
14:30 63.3 °F /  17.4 °C 49.2 °F /  9.6 °C 29.67 in /  1004.6 hPa SSE 20.7 mph /  33.3 km/h 20.7 mph /  33.3 km/h 60 % 0.00 in /  0 mm 79.0 W/m2 SCT
14:35 63.2 °F /  17.3 °C 49.1 °F /  9.5 °C 29.67 in /  1004.6 hPa South 24.2 mph /  38.9 km/h 24.2 mph /  38.9 km/h 60 % 0.00 in /  0 mm 69.0 W/m2 CLR
14:40 63.2 °F /  17.3 °C 48.6 °F /  9.2 °C 29.67 in /  1004.6 hPa South 18.4 mph /  29.6 km/h 18.4 mph /  29.6 km/h 59 % 0.00 in /  0 mm 46.0 W/m2 CLR
14:45 63.1 °F /  17.3 °C 48.5 °F /  9.2 °C 29.67 in /  1004.6 hPa South 21.9 mph /  35.2 km/h 21.9 mph /  35.2 km/h 59 % 0.00 in /  0 mm 44.0 W/m2 CLR
14:50 63.1 °F /  17.3 °C 48.5 °F /  9.2 °C 29.67 in /  1004.6 hPa South 16.1 mph /  25.9 km/h 16.1 mph /  25.9 km/h 59 % 0.00 in /  0 mm 46.0 W/m2 SCT
14:55 63.1 °F /  17.3 °C 48.5 °F /  9.2 °C 29.68 in /  1005 hPa SSW 12.7 mph /  20.4 km/h 12.7 mph /  20.4 km/h 59 % 0.00 in /  0 mm 56.0 W/m2 SCT
15:00 63.0 °F /  17.2 °C 48.9 °F /  9.4 °C 29.68 in /  1005 hPa South 16.1 mph /  25.9 km/h 16.1 mph /  25.9 km/h 60 % 0.00 in /  0 mm 56.0 W/m2 SCT
15:05 63.0 °F /  17.2 °C 48.9 °F /  9.4 °C 29.68 in /  1005 hPa South 17.3 mph /  27.8 km/h 17.3 mph /  27.8 km/h 60 % 0.00 in /  0 mm 47.0 W/m2 SCT
15:10 63.1 °F /  17.3 °C 49.0 °F /  9.4 °C 29.68 in /  1005 hPa SW 19.6 mph /  31.5 km/h 19.6 mph /  31.5 km/h 60 % 0.00 in /  0 mm 40.0 W/m2 SCT
15:15 63.0 °F /  17.2 °C 48.4 °F /  9.1 °C 29.68 in /  1005 hPa SSW 21.9 mph /  35.2 km/h 21.9 mph /  35.2 km/h 59 % 0.00 in /  0 mm 42.0 W/m2 SCT
15:20 63.1 °F /  17.3 °C 48.5 °F /  9.2 °C 29.68 in /  1005 hPa SSW 17.3 mph /  27.8 km/h 17.3 mph /  27.8 km/h 59 % 0.00 in /  0 mm 26.0 W/m2 OVC
15:25 63.1 °F /  17.3 °C 48.5 °F /  9.2 °C 29.68 in /  1005 hPa SSW 18.4 mph /  29.6 km/h 18.4 mph /  29.6 km/h 59 % 0.00 in /  0 mm 19.0 W/m2 OVC
15:30 63.0 °F /  17.2 °C 48.4 °F /  9.1 °C 29.68 in /  1005 hPa South 13.8 mph /  22.2 km/h 13.8 mph /  22.2 km/h 59 % 0.00 in /  0 mm 18.0 W/m2 OVC
15:35 62.8 °F /  17.1 °C 48.7 °F /  9.3 °C 29.68 in /  1005 hPa South 19.6 mph /  31.5 km/h 19.6 mph /  31.5 km/h 60 % 0.00 in /  0 mm 19.0 W/m2 OVC
15:40 62.9 °F /  17.2 °C 48.3 °F /  9.1 °C 29.68 in /  1005 hPa South 21.9 mph /  35.2 km/h 21.9 mph /  35.2 km/h 59 % 0.00 in /  0 mm 21.0 W/m2 OVC
15:45 62.9 °F /  17.2 °C 48.8 °F /  9.3 °C 29.67 in /  1004.6 hPa SSW 21.9 mph /  35.2 km/h 21.9 mph /  35.2 km/h 60 % 0.00 in /  0 mm 26.0 W/m2 OVC
15:50 62.6 °F /  17 °C 48.5 °F /  9.2 °C 29.66 in /  1004.3 hPa South 13.8 mph /  22.2 km/h 13.8 mph /  22.2 km/h 60 % 0.00 in /  0 mm 28.0 W/m2 OVC
15:55 62.2 °F /  16.8 °C 48.6 °F /  9.2 °C 29.67 in /  1004.6 hPa South 19.6 mph /  31.5 km/h 19.6 mph /  31.5 km/h 61 % 0.00 in /  0 mm 21.0 W/m2 OVC
16:00 61.7 °F /  16.5 °C 48.1 °F /  8.9 °C 29.66 in /  1004.3 hPa SSE 19.6 mph /  31.5 km/h 19.6 mph /  31.5 km/h 61 % 0.00 in /  0 mm 14.0 W/m2 OVC
16:05 61.6 °F /  16.4 °C 48.4 °F /  9.1 °C 29.66 in /  1004.3 hPa South 19.6 mph /  31.5 km/h 19.6 mph /  31.5 km/h 62 % 0.00 in /  0 mm 7.0 W/m2 BKN
16:10 61.7 °F /  16.5 °C 48.5 °F /  9.2 °C 29.66 in /  1004.3 hPa South 20.7 mph /  33.3 km/h 20.7 mph /  33.3 km/h 62 % 0.00 in /  0 mm 0.0 W/m2 BKN
16:15 61.6 °F /  16.4 °C 48.4 °F /  9.1 °C 29.65 in /  1003.9 hPa SSE 17.3 mph /  27.8 km/h 17.3 mph /  27.8 km/h 62 % 0.00 in /  0 mm 0.0 W/m2 BKN
16:20 61.4 °F /  16.3 °C 47.8 °F /  8.8 °C 29.65 in /  1003.9 hPa South 19.6 mph /  31.5 km/h 19.6 mph /  31.5 km/h 61 % 0.00 in /  0 mm 0.0 W/m2 BKN
16:25 61.2 °F /  16.2 °C 48.1 °F /  8.9 °C 29.65 in /  1003.9 hPa South 22.0 mph /  35.4 km/h 22.0 mph /  35.4 km/h 62 % 0.00 in /  0 mm 0.0 W/m2 BKN
16:30 60.9 °F /  16.1 °C 47.8 °F /  8.8 °C 29.64 in /  1003.6 hPa South 25.3 mph /  40.7 km/h 25.3 mph /  40.7 km/h 62 % 0.00 in /  0 mm 0.0 W/m2 BKN
16:35 60.9 °F /  16.1 °C 47.8 °F /  8.8 °C 29.64 in /  1003.6 hPa South 19.6 mph /  31.5 km/h 19.6 mph /  31.5 km/h 62 % 0.00 in /  0 mm 0.0 W/m2 BKN
16:40 60.7 °F /  15.9 °C 48.0 °F /  8.9 °C 29.64 in /  1003.6 hPa SSE 21.9 mph /  35.2 km/h 21.9 mph /  35.2 km/h 63 % 0.00 in /  0 mm 0.0 W/m2 BKN
16:45 60.8 °F /  16 °C 48.1 °F /  8.9 °C 29.63 in /  1003.3 hPa SSE 25.3 mph /  40.7 km/h 25.3 mph /  40.7 km/h 63 % 0.00 in /  0 mm 0.0 W/m2 BKN
16:50 60.8 °F /  16 °C 48.1 °F /  8.9 °C 29.62 in /  1002.9 hPa SSW 23.0 mph /  37 km/h 23.0 mph /  37 km/h 63 % 0.00 in /  0 mm 0.0 W/m2 SCT
16:55 60.8 °F /  16 °C 48.1 °F /  8.9 °C 29.62 in /  1002.9 hPa SW 21.9 mph /  35.2 km/h 21.9 mph /  35.2 km/h 63 % 0.00 in /  0 mm 0.0 W/m2 SCT
17:00 60.9 °F /  16.1 °C 48.6 °F /  9.2 °C 29.62 in /  1002.9 hPa South 23.0 mph /  37 km/h 23.0 mph /  37 km/h 64 % 0.00 in /  0 mm 0.0 W/m2 SCT
17:05 61.1 °F /  16.2 °C 48.8 °F /  9.3 °C 29.62 in /  1002.9 hPa SSW 23.0 mph /  37 km/h 23.0 mph /  37 km/h 64 % 0.00 in /  0 mm 0.0 W/m2 SCT
17:10 61.0 °F /  16.1 °C 48.7 °F /  9.3 °C 29.62 in /  1002.9 hPa SSE 23.0 mph /  37 km/h 23.0 mph /  37 km/h 64 % 0.00 in /  0 mm 0.0 W/m2 SCT
17:15 60.8 °F /  16 °C 48.5 °F /  9.2 °C 29.62 in /  1002.9 hPa South 24.2 mph /  38.9 km/h 24.2 mph /  38.9 km/h 64 % 0.00 in /  0 mm 0.0 W/m2 SCT
17:20 60.9 °F /  16.1 °C 48.6 °F /  9.2 °C 29.62 in /  1002.9 hPa South 26.5 mph /  42.6 km/h 26.5 mph /  42.6 km/h 64 % 0.00 in /  0 mm 0.0 W/m2 CLR
17:30 60.9 °F /  16.1 °C 49.1 °F /  9.5 °C 29.62 in /  1002.9 hPa SSW 19.6 mph /  31.5 km/h 19.6 mph /  31.5 km/h 65 % 0.00 in /  0 mm 0.0 W/m2 CLR
17:35 61.1 °F /  16.2 °C 49.2 °F /  9.6 °C 29.62 in /  1002.9 hPa SSW 23.0 mph /  37 km/h 23.0 mph /  37 km/h 65 % 0.00 in /  0 mm 0.0 W/m2 CLR
17:40 61.1 °F /  16.2 °C 49.7 °F /  9.8 °C 29.62 in /  1002.9 hPa South 26.5 mph /  42.6 km/h 26.5 mph /  42.6 km/h 66 % 0.00 in /  0 mm 0.0 W/m2 CLR
17:45 61.2 °F /  16.2 °C 49.7 °F /  9.8 °C 29.62 in /  1002.9 hPa South 26.5 mph /  42.6 km/h 26.5 mph /  42.6 km/h 66 % 0.00 in /  0 mm 0.0 W/m2 CLR
17:50 61.3 °F /  16.3 °C 50.2 °F /  10.1 °C 29.62 in /  1002.9 hPa South 26.5 mph /  42.6 km/h 26.5 mph /  42.6 km/h 67 % 0.00 in /  0 mm 0.0 W/m2 SCT
17:55 61.2 °F /  16.2 °C 50.2 °F /  10.1 °C 29.61 in /  1002.6 hPa SSE 23.0 mph /  37 km/h 23.0 mph /  37 km/h 67 % 0.00 in /  0 mm 0.0 W/m2 SCT
17:56 61.2 °F /  16.2 °C 50.2 °F /  10.1 °C 29.61 in /  1002.6 hPa South 23.0 mph /  37 km/h 23.0 mph /  37 km/h 67 % 0.00 in /  0 mm 0.0 W/m2 SCT
18:01 61.2 °F /  16.2 °C 50.6 °F /  10.3 °C 29.61 in /  1002.6 hPa South 21.9 mph /  35.2 km/h 21.9 mph /  35.2 km/h 68 % 0.00 in /  0 mm 0.0 W/m2 OVC
18:06 61.3 °F /  16.3 °C 50.6 °F /  10.3 °C 29.61 in /  1002.6 hPa South 23.0 mph /  37 km/h 23.0 mph /  37 km/h 68 % 0.00 in /  0 mm 0.0 W/m2 OVC
18:11 61.2 °F /  16.2 °C 50.6 °F /  10.3 °C 29.61 in /  1002.6 hPa SSW 20.7 mph /  33.3 km/h 20.7 mph /  33.3 km/h 68 % 0.00 in /  0 mm 0.0 W/m2 OVC
18:16 61.2 °F /  16.2 °C 50.2 °F /  10.1 °C 29.61 in /  1002.6 hPa SSE 25.3 mph /  40.7 km/h 25.3 mph /  40.7 km/h 67 % 0.00 in /  0 mm 0.0 W/m2 OVC
18:21 61.1 °F /  16.2 °C 50.1 °F /  10.1 °C 29.61 in /  1002.6 hPa South 18.4 mph /  29.6 km/h 18.4 mph /  29.6 km/h 67 % 0.00 in /  0 mm 0.0 W/m2 OVC
18:26 61.0 °F /  16.1 °C 50.0 °F /  10 °C 29.59 in /  1001.9 hPa South 24.2 mph /  38.9 km/h 24.2 mph /  38.9 km/h 67 % 0.00 in /  0 mm 0.0 W/m2 OVC
18:31 60.9 °F /  16.1 °C 49.9 °F /  9.9 °C 29.59 in /  1001.9 hPa SSW 20.7 mph /  33.3 km/h 20.7 mph /  33.3 km/h 67 % 0.00 in /  0 mm 0.0 W/m2 OVC
18:36 60.8 °F /  16 °C 49.8 °F /  9.9 °C 29.59 in /  1001.9 hPa SSW 21.9 mph /  35.2 km/h 21.9 mph /  35.2 km/h 67 % 0.00 in /  0 mm 0.0 W/m2 OVC
18:41 60.8 °F /  16 °C 49.8 °F /  9.9 °C 29.59 in /  1001.9 hPa South 19.6 mph /  31.5 km/h 19.6 mph /  31.5 km/h 67 % 0.00 in /  0 mm 0.0 W/m2 OVC
18:46 60.9 °F /  16.1 °C 49.9 °F /  9.9 °C 29.60 in /  1002.3 hPa SSE 20.0 mph /  32.2 km/h 20.0 mph /  32.2 km/h 67 % 0.00 in /  0 mm 0.0 W/m2 OVC
18:51 60.8 °F /  16 °C 50.2 °F /  10.1 °C 29.59 in /  1001.9 hPa SW 21.9 mph /  35.2 km/h 21.9 mph /  35.2 km/h 68 % 0.00 in /  0 mm 0.0 W/m2 OVC
18:56 60.9 °F /  16.1 °C 50.3 °F /  10.2 °C 29.60 in /  1002.3 hPa South 19.6 mph /  31.5 km/h 19.6 mph /  31.5 km/h 68 % 0.00 in /  0 mm 0.0 W/m2 OVC
19:01 60.9 °F /  16.1 °C 50.3 °F /  10.2 °C 29.60 in /  1002.3 hPa South 19.6 mph /  31.5 km/h 19.6 mph /  31.5 km/h 68 % 0.00 in /  0 mm 0.0 W/m2 SCT
19:06 60.8 °F /  16 °C 50.2 °F /  10.1 °C 29.60 in /  1002.3 hPa SSW 18.4 mph /  29.6 km/h 18.4 mph /  29.6 km/h 68 % 0.00 in /  0 mm 0.0 W/m2 SCT
19:11 60.7 °F /  15.9 °C 50.5 °F /  10.3 °C 29.59 in /  1001.9 hPa South 25.3 mph /  40.7 km/h 25.3 mph /  40.7 km/h 69 % 0.00 in /  0 mm 0.0 W/m2 SCT
19:16 60.7 °F /  15.9 °C 50.5 °F /  10.3 °C 29.59 in /  1001.9 hPa South 21.9 mph /  35.2 km/h 21.9 mph /  35.2 km/h 69 % 0.00 in /  0 mm 0.0 W/m2 SCT
19:21 60.6 °F /  15.9 °C 50.4 °F /  10.2 °C 29.59 in /  1001.9 hPa SSW 27.6 mph /  44.4 km/h 27.6 mph /  44.4 km/h 69 % 0.00 in /  0 mm 0.0 W/m2 SCT
19:26 60.7 °F /  15.9 °C 50.9 °F /  10.5 °C 29.59 in /  1001.9 hPa South 19.6 mph /  31.5 km/h 19.6 mph /  31.5 km/h 70 % 0.00 in /  0 mm 0.0 W/m2 SCT
19:31 60.7 °F /  15.9 °C 50.9 °F /  10.5 °C 29.59 in /  1001.9 hPa South 19.6 mph /  31.5 km/h 19.6 mph /  31.5 km/h 70 % 0.00 in /  0 mm 0.0 W/m2 BKN
19:36 60.7 °F /  15.9 °C 50.9 °F /  10.5 °C 29.59 in /  1001.9 hPa South 27.6 mph /  44.4 km/h 27.6 mph /  44.4 km/h 70 % 0.00 in /  0 mm 0.0 W/m2 BKN
19:41 60.8 °F /  16 °C 51.0 °F /  10.6 °C 29.59 in /  1001.9 hPa SSW 21.9 mph /  35.2 km/h 21.9 mph /  35.2 km/h 70 % 0.00 in /  0 mm 0.0 W/m2 BKN
19:46 60.9 °F /  16.1 °C 51.8 °F /  11 °C 29.58 in /  1001.6 hPa SSW 26.5 mph /  42.6 km/h 26.5 mph /  42.6 km/h 72 % 0.00 in /  0 mm 0.0 W/m2 BKN
19:51 60.8 °F /  16 °C 51.7 °F /  10.9 °C 29.59 in /  1001.9 hPa South 22.0 mph /  35.4 km/h 22.0 mph /  35.4 km/h 72 % 0.00 in /  0 mm 0.0 W/m2 BKN
20:01 60.9 °F /  16.1 °C 52.2 °F /  11.2 °C 29.59 in /  1001.9 hPa South 26.5 mph /  42.6 km/h 26.5 mph /  42.6 km/h 73 % 0.00 in /  0 mm 0.0 W/m2 SCT
20:06 61.1 °F /  16.2 °C 52.4 °F /  11.3 °C 29.59 in /  1001.9 hPa South 21.9 mph /  35.2 km/h 21.9 mph /  35.2 km/h 73 % 0.00 in /  0 mm 0.0 W/m2 SCT
20:11 61.2 °F /  16.2 °C 52.8 °F /  11.6 °C 29.59 in /  1001.9 hPa South 23.0 mph /  37 km/h 23.0 mph /  37 km/h 74 % 0.00 in /  0 mm 0.0 W/m2 SCT
20:16 61.4 °F /  16.3 °C 53.0 °F /  11.7 °C 29.59 in /  1001.9 hPa South 25.3 mph /  40.7 km/h 25.3 mph /  40.7 km/h 74 % 0.00 in /  0 mm 0.0 W/m2 SCT
20:21 61.4 °F /  16.3 °C 52.7 °F /  11.5 °C 29.58 in /  1001.6 hPa South 29.9 mph /  48.1 km/h 29.9 mph /  48.1 km/h 73 % 0.00 in /  0 mm 0.0 W/m2 SCT
20:22 61.4 °F /  16.3 °C 53.0 °F /  11.7 °C 29.58 in /  1001.6 hPa SSW 23.0 mph /  37 km/h 23.0 mph /  37 km/h 74 % 0.00 in /  0 mm 0.0 W/m2 SCT
20:27 61.4 °F /  16.3 °C 52.7 °F /  11.5 °C 29.58 in /  1001.6 hPa SW 20.7 mph /  33.3 km/h 20.7 mph /  33.3 km/h 73 % 0.00 in /  0 mm 0.0 W/m2 SCT
20:32 61.4 °F /  16.3 °C 52.7 °F /  11.5 °C 29.58 in /  1001.6 hPa SSE 16.1 mph /  25.9 km/h 16.1 mph /  25.9 km/h 73 % 0.00 in /  0 mm 0.0 W/m2 OVC
20:37 61.4 °F /  16.3 °C 53.0 °F /  11.7 °C 29.58 in /  1001.6 hPa SSW 19.6 mph /  31.5 km/h 19.6 mph /  31.5 km/h 74 % 0.00 in /  0 mm 0.0 W/m2 OVC
20:42 61.5 °F /  16.4 °C 53.1 °F /  11.7 °C 29.58 in /  1001.6 hPa SSW 20.7 mph /  33.3 km/h 20.7 mph /  33.3 km/h 74 % 0.00 in /  0 mm 0.0 W/m2 OVC
20:47 61.4 °F /  16.3 °C 53.0 °F /  11.7 °C 29.58 in /  1001.6 hPa SSW 23.0 mph /  37 km/h 23.0 mph /  37 km/h 74 % 0.00 in /  0 mm 0.0 W/m2 OVC
20:52 61.4 °F /  16.3 °C 53.4 °F /  11.9 °C 29.58 in /  1001.6 hPa South 25.3 mph /  40.7 km/h 25.3 mph /  40.7 km/h 75 % 0.00 in /  0 mm 0.0 W/m2 OVC
20:57 61.3 °F /  16.3 °C 54.0 °F /  12.2 °C 29.58 in /  1001.6 hPa South 23.0 mph /  37 km/h 23.0 mph /  37 km/h 77 % 0.00 in /  0 mm 0.0 W/m2 OVC
21:02 61.1 °F /  16.2 °C 54.2 °F /  12.3 °C 29.58 in /  1001.6 hPa South 24.2 mph /  38.9 km/h 24.2 mph /  38.9 km/h 78 % 0.00 in /  0 mm 0.0 W/m2 OVC
21:07 60.9 °F /  16.1 °C 54.3 °F /  12.4 °C 29.58 in /  1001.6 hPa South 26.5 mph /  42.6 km/h 26.5 mph /  42.6 km/h 79 % 0.00 in /  0 mm 0.0 W/m2 OVC
21:13 60.7 °F /  15.9 °C 54.5 °F /  12.5 °C 29.58 in /  1001.6 hPa SSW 24.2 mph /  38.9 km/h 24.2 mph /  38.9 km/h 80 % 0.00 in /  0 mm 0.0 W/m2 OVC
21:18 60.5 °F /  15.8 °C 54.6 °F /  12.6 °C 29.58 in /  1001.6 hPa SSW 17.3 mph /  27.8 km/h 17.3 mph /  27.8 km/h 81 % 0.00 in /  0 mm 0.0 W/m2 OVC
21:20 60.3 °F /  15.7 °C 54.8 °F /  12.7 °C 29.58 in /  1001.6 hPa SSW 20.0 mph /  32.2 km/h 20.0 mph /  32.2 km/h 82 % 0.00 in /  0 mm 0.0 W/m2 OVC
21:25 59.4 °F /  15.2 °C 54.9 °F /  12.7 °C 29.57 in /  1001.2 hPa SSW 19.6 mph /  31.5 km/h 19.6 mph /  31.5 km/h 85 % 0.00 in /  0 mm 0.0 W/m2 OVC
21:30 59.0 °F /  15 °C 55.1 °F /  12.8 °C 29.57 in /  1001.2 hPa SSW 20.7 mph /  33.3 km/h 20.7 mph /  33.3 km/h 87 % 0.00 in /  0 mm 0.0 W/m2 OVC
21:35 58.9 °F /  14.9 °C 55.0 °F /  12.8 °C 29.57 in /  1001.2 hPa SE 18.4 mph /  29.6 km/h 18.4 mph /  29.6 km/h 87 % 0.00 in /  0 mm 0.0 W/m2 OVC
21:40 58.8 °F /  14.9 °C 55.3 °F /  12.9 °C 29.56 in /  1000.9 hPa South 23.0 mph /  37 km/h 23.0 mph /  37 km/h 88 % 0.00 in /  0 mm 0.0 W/m2 OVC
21:45 58.9 °F /  14.9 °C 55.0 °F /  12.8 °C 29.56 in /  1000.9 hPa South 19.6 mph /  31.5 km/h 19.6 mph /  31.5 km/h 87 % 0.00 in /  0 mm 0.0 W/m2 OVC
21:55 59.0 °F /  15 °C 55.1 °F /  12.8 °C 29.56 in /  1000.9 hPa South 26.5 mph /  42.6 km/h 26.5 mph /  42.6 km/h 87 % 0.00 in /  0 mm 0.0 W/m2 OVC
22:00 59.1 °F /  15.1 °C 55.2 °F /  12.9 °C 29.56 in /  1000.9 hPa SSW 17.3 mph /  27.8 km/h 17.3 mph /  27.8 km/h 87 % 0.00 in /  0 mm 0.0 W/m2 OVC
22:05 59.2 °F /  15.1 °C 55.3 °F /  12.9 °C 29.56 in /  1000.9 hPa SSW 21.9 mph /  35.2 km/h 21.9 mph /  35.2 km/h 87 % 0.00 in /  0 mm 0.0 W/m2 OVC
22:10 59.4 °F /  15.2 °C 55.2 °F /  12.9 °C 29.56 in /  1000.9 hPa South 26.5 mph /  42.6 km/h 26.5 mph /  42.6 km/h 86 % 0.00 in /  0 mm 0.0 W/m2 OVC
22:15 59.5 °F /  15.3 °C 55.6 °F /  13.1 °C 29.56 in /  1000.9 hPa South 17.3 mph /  27.8 km/h 17.3 mph /  27.8 km/h 87 % 0.00 in /  0 mm 0.0 W/m2 OVC
22:20 59.6 °F /  15.3 °C 55.7 °F /  13.2 °C 29.56 in /  1000.9 hPa SSW 23.0 mph /  37 km/h 23.0 mph /  37 km/h 87 % 0.00 in /  0 mm 0.0 W/m2 BKN
22:25 59.8 °F /  15.4 °C 55.9 °F /  13.3 °C 29.56 in /  1000.9 hPa South 26.5 mph /  42.6 km/h 26.5 mph /  42.6 km/h 87 % 0.00 in /  0 mm 0.0 W/m2 BKN
22:30 59.8 °F /  15.4 °C 55.9 °F /  13.3 °C 29.57 in /  1001.2 hPa SSW 26.5 mph /  42.6 km/h 26.5 mph /  42.6 km/h 87 % 0.00 in /  0 mm 0.0 W/m2 BKN
22:35 59.7 °F /  15.4 °C 55.8 °F /  13.2 °C 29.56 in /  1000.9 hPa SSW 26.5 mph /  42.6 km/h 26.5 mph /  42.6 km/h 87 % 0.00 in /  0 mm 0.0 W/m2 OVC
22:36 59.7 °F /  15.4 °C 55.8 °F /  13.2 °C 29.56 in /  1000.9 hPa South 26.5 mph /  42.6 km/h 26.5 mph /  42.6 km/h 87 % 0.00 in /  0 mm 0.0 W/m2 OVC
22:41 59.7 °F /  15.4 °C 56.1 °F /  13.4 °C 29.57 in /  1001.2 hPa SW 27.6 mph /  44.4 km/h 27.6 mph /  44.4 km/h 88 % 0.00 in /  0 mm 0.0 W/m2 OVC
22:46 59.3 °F /  15.2 °C 55.1 °F /  12.8 °C 29.61 in /  1002.6 hPa WSW 28.8 mph /  46.3 km/h 28.8 mph /  46.3 km/h 86 % 0.01 in /  0.25 mm 0.0 W/m2 RA
22:51 55.2 °F /  12.9 °C 48.5 °F /  9.2 °C 29.61 in /  1002.6 hPa WSW 18.4 mph /  29.6 km/h 18.4 mph /  29.6 km/h 78 % 0.03 in /  0.76 mm 0.0 W/m2 RA
22:56 53.1 °F /  11.7 °C 47.7 °F /  8.7 °C 29.61 in /  1002.6 hPa WNW 21.0 mph /  33.8 km/h 21.0 mph /  33.8 km/h 82 % 0.03 in /  0.76 mm 0.0 W/m2 RA
23:01 51.9 °F /  11.1 °C 47.2 °F /  8.4 °C 29.62 in /  1002.9 hPa WSW 20.7 mph /  33.3 km/h 20.7 mph /  33.3 km/h 84 % 0.03 in /  0.76 mm 0.0 W/m2 OVC
23:06 51.3 °F /  10.7 °C 46.9 °F /  8.3 °C 29.63 in /  1003.3 hPa SW 16.1 mph /  25.9 km/h 16.1 mph /  25.9 km/h 85 % 0.03 in /  0.76 mm 0.0 W/m2 OVC
23:11 50.9 °F /  10.5 °C 46.9 °F /  8.3 °C 29.64 in /  1003.6 hPa West 16.1 mph /  25.9 km/h 16.1 mph /  25.9 km/h 86 % 0.03 in /  0.76 mm 0.0 W/m2 OVC
23:16 50.6 °F /  10.3 °C 46.6 °F /  8.1 °C 29.64 in /  1003.6 hPa WSW 26.5 mph /  42.6 km/h 26.5 mph /  42.6 km/h 86 % 0.03 in /  0.76 mm 0.0 W/m2 OVC
23:21 50.2 °F /  10.1 °C 46.2 °F /  7.9 °C 29.64 in /  1003.6 hPa WSW 13.8 mph /  22.2 km/h 13.8 mph /  22.2 km/h 86 % 0.03 in /  0.76 mm 0.0 W/m2 -RA
23:26 49.9 °F /  9.9 °C 45.9 °F /  7.7 °C 29.65 in /  1003.9 hPa WSW 20.7 mph /  33.3 km/h 20.7 mph /  33.3 km/h 86 % 0.03 in /  0.76 mm 0.0 W/m2 -RA
23:31 49.3 °F /  9.6 °C 44.7 °F /  7.1 °C 29.66 in /  1004.3 hPa WSW 17.3 mph /  27.8 km/h 17.3 mph /  27.8 km/h 84 % 0.03 in /  0.76 mm 0.0 W/m2 -RA
23:36 48.6 °F /  9.2 °C 43.4 °F /  6.3 °C 29.66 in /  1004.3 hPa SW 18.4 mph /  29.6 km/h 18.4 mph /  29.6 km/h 82 % 0.03 in /  0.76 mm 0.0 W/m2 -RA
23:41 48.1 °F /  8.9 °C 41.2 °F /  5.1 °C 29.66 in /  1004.3 hPa SW 33.4 mph /  53.8 km/h 33.4 mph /  53.8 km/h 77 % 0.03 in /  0.76 mm 0.0 W/m2 OVC
23:46 47.7 °F /  8.7 °C 40.5 °F /  4.7 °C 29.66 in /  1004.3 hPa WSW 21.9 mph /  35.2 km/h 21.9 mph /  35.2 km/h 76 % 0.02 in /  0.51 mm 0.0 W/m2 OVC
23:51 47.3 °F /  8.5 °C 40.5 °F /  4.7 °C 29.67 in /  1004.6 hPa West 20.7 mph /  33.3 km/h 20.7 mph /  33.3 km/h 77 % 0.00 in /  0 mm 0.0 W/m2 OVC
23:56 46.9 °F /  8.3 °C 40.4 °F /  4.7 °C 29.67 in /  1004.6 hPa West 11.5 mph /  18.5 km/h 11.5 mph /  18.5 km/h 78 % 0.00 in /  0 mm 0.0 W/m2 OVC
Bourbonnais, Illinois, USA
Compliments of Weather Underground - 3.75 mb